Kangerlussuaq Airport

BGSF · Greenland

罗盘
风向 的 风向 的 风向 到 风向 040° Kangerlussuaq Airport 9/27
风: 4 kt, 2 beaufort

4 kt

1 kt
改变
0 ft 6.000 12.000 18.000 24.000 30.000
Cloud Cloud Cloud Cloud Cloud Cloud
BKN 21.000
METAR BGJN 272350Z AUTO 04004KT 010V070 9999NDV BKN210/// M13/M20 Q0984

METAR Kangerlussuaq Airport - BGSF/SFJ

该字段位于Greenland中。 该机场有一条跑道: 9/27. 该领域的国际民航组织标志是BGSF 它的国际航空运输协会代码是SFJ.

这份报告是针对2023年1月27日 20:50, 当地时间在Ilulissat Airport进行的。

机场观察

风向为040°,速度为4 kt。 风向在010°和070°之间变化。

可见度为10 km 或者更多。

有碎云在21.000 ft的高度。 破损或更高的上限为21.000 ft。

温度为-13 °C,阵风为-20 °C。 露点为-20 °C,相对湿度为56%。 海平面上的气压为984 hPa (QNH)。

白天

今天,太阳从09:44升起,在15:27降落。 这适用于Kangerlussuaq Airport,世界夏令时可能有所不同。 当地时间与世界标准时间之间的时差为-3 小时。 当前,没有夏令时有效。

公司介绍

我们没有关于这个机场的公司信息。

体会

到Vliegles.nl去找飞行课程,跳伞和其他飞行体验。 浏览页面,了解Kangerlussuaq Airport附近所有可用的活动。 你也可以使用搜索功能来寻找你所在地附近的特定飞行课程、跳伞或其他飞行体验。

跑道

Id 标题 侧风 逆风 侧风 %
9/27 061°-241° 1 kt 4 kt 36 %

逆风成分最大的方向会被突出显示,并用于横风计算。 这并不一定意味着这个方向在使用。

乌云

21.000 ft BKN 碎云

温度 & 天气

温度 -13 °C
露点 -20 °C
相对湿度 56%
风寒 -20 °C
Kp-index 0 (0-9)

白天

日出
10:23 (13:05)
中午
12:36
日落
14:50

小工具

你想在你的网站上有一个关于Kangerlussuaq Airport的当前航空天气(METAR)的小部件吗?

显示HTML代码

我们和第三方通过cookies跟踪您在我们网站上的互联网行为。如果你继续,我们认为你同意我们的饼干政策